Time;durP1;ratioP1;P1;durP2;ratioP2;P2;SDS_P1;SDS_P2;PMS_P1;PMS_P2;Temp;Humidity;BMP_temperature;BMP_pressure;BME280_temperature;BME280_humidity;BME280_pressure;Samples;Min_cycle;Max_cycle;Signal;HPM_P1;HPM_P2
2022/12/21 00:01:30;;;;;;;5.68;3.28;;;;;;;;;;5030823;28;20088;-75
2022/12/21 00:03:58;;;;;;;7.70;4.30;;;;;;;;;;5024324;28;20041;-75
2022/12/21 00:06:28;;;;;;;8.32;3.75;;;;;;;;;;5030633;28;20431;-75
2022/12/21 00:09:00;;;;;;;8.25;3.95;;;;;;;;;;5028575;28;20108;-75
2022/12/21 00:11:27;;;;;;;4.40;3.50;;;;;;;;;;5030971;28;20042;-76
2022/12/21 00:13:54;;;;;;;7.82;4.15;;;;;;;;;;5029923;28;20025;-76
2022/12/21 00:16:25;;;;;;;8.07;4.22;;;;;;;;;;5030631;28;20017;-76
2022/12/21 00:18:51;;;;;;;8.80;4.72;;;;;;;;;;5030828;28;20484;-76
2022/12/21 00:21:21;;;;;;;7.32;4.45;;;;;;;;;;5030198;28;20026;-76
2022/12/21 00:23:50;;;;;;;6.93;4.20;;;;;;;;;;5029835;28;20067;-75
2022/12/21 00:26:19;;;;;;;5.90;4.40;;;;;;;;;;5013028;28;20025;-76
2022/12/21 00:28:45;;;;;;;;;;;;;;;;;;5030562;28;20113;-75
2022/12/21 00:31:12;;;;;;;6.25;4.18;;;;;;;;;;5029936;28;19917;-75
2022/12/21 00:33:39;;;;;;;6.40;3.85;;;;;;;;;;5029619;28;20056;-77
2022/12/21 00:36:06;;;;;;;6.10;4.15;;;;;;;;;;5013333;28;20021;-76
2022/12/21 00:38:32;;;;;;;7.03;4.28;;;;;;;;;;5030124;28;20026;-77
2022/12/21 00:41:02;;;;;;;7.55;4.38;;;;;;;;;;5030651;28;20603;-77
2022/12/21 00:43:28;;;;;;;7.32;4.30;;;;;;;;;;5029009;28;20037;-77
2022/12/21 00:45:53;;;;;;;6.90;4.28;;;;;;;;;;5029225;28;20056;-77
2022/12/21 00:48:21;;;;;;;6.57;4.38;;;;;;;;;;5029845;28;20034;-77
2022/12/21 00:50:49;;;;;;;6.88;4.22;;;;;;;;;;5031022;28;20029;-76
2022/12/21 00:53:16;;;;;;;7.67;4.80;;;;;;;;;;5013725;28;20033;-75
2022/12/21 00:55:51;;;;;;;7.30;4.10;;;;;;;;;;5030423;28;20690;-75
2022/12/21 00:58:21;;;;;;;8.32;4.72;;;;;;;;;;5030553;28;20373;-75
2022/12/21 01:00:47;;;;;;;9.43;5.00;;;;;;;;;;5027893;28;20018;-76
2022/12/21 01:03:12;;;;;;;8.40;3.97;;;;;;;;;;5028708;28;20033;-76
2022/12/21 01:05:37;;;;;;;10.65;4.60;;;;;;;;;;5027782;28;20033;-77
2022/12/21 01:08:03;;;;;;;6.13;4.13;;;;;;;;;;5030282;28;20040;-76
2022/12/21 01:10:28;;;;;;;5.95;3.53;;;;;;;;;;5032524;28;20435;-77
2022/12/21 01:12:55;;;;;;;6.85;4.10;;;;;;;;;;5013556;28;20060;-77
2022/12/21 01:15:20;;;;;;;6.05;3.97;;;;;;;;;;5031882;28;20032;-77
2022/12/21 01:17:47;;;;;;;9.73;3.97;;;;;;;;;;5017244;28;20033;-76
2022/12/21 01:20:13;;;;;;;8.50;4.30;;;;;;;;;;5035954;28;20014;-77
2022/12/21 01:22:40;;;;;;;8.65;4.10;;;;;;;;;;5035744;28;20376;-76
2022/12/21 01:25:06;;;;;;;9.20;4.22;;;;;;;;;;5033450;28;20049;-76
2022/12/21 01:27:36;;;;;;;6.60;3.88;;;;;;;;;;5016820;28;20072;-77
2022/12/21 01:30:05;;;;;;;6.25;4.00;;;;;;;;;;5032935;28;20026;-76
2022/12/21 01:32:30;;;;;;;6.28;4.20;;;;;;;;;;5015232;28;20455;-76
2022/12/21 01:34:56;;;;;;;5.20;3.33;;;;;;;;;;5034071;28;20026;-76
2022/12/21 01:37:25;;;;;;;12.45;5.10;;;;;;;;;;5033524;28;20029;-76
2022/12/21 01:39:50;;;;;;;6.05;3.78;;;;;;;;;;5032734;28;20041;-77
2022/12/21 01:42:18;;;;;;;6.10;3.20;;;;;;;;;;5032392;28;20029;-77
2022/12/21 01:44:55;;;;;;;6.22;3.53;;;;;;;;;;5032916;28;20072;-76
2022/12/21 01:47:32;;;;;;;7.28;3.63;;;;;;;;;;5032746;28;20104;-77
2022/12/21 01:50:16;;;;;;;6.20;3.33;;;;;;;;;;5031982;28;20551;-76
2022/12/21 01:52:41;;;;;;;6.85;3.75;;;;;;;;;;5032534;28;20484;-76
2022/12/21 01:55:07;;;;;;;7.93;4.18;;;;;;;;;;5033165;28;20032;-77
2022/12/21 01:57:34;;;;;;;6.07;3.08;;;;;;;;;;5031489;28;20040;-76
2022/12/21 02:00:04;;;;;;;6.47;3.38;;;;;;;;;;5014527;28;20071;-76
2022/12/21 02:02:38;;;;;;;6.35;3.10;;;;;;;;;;5015653;28;20129;-76
2022/12/21 02:05:15;;;;;;;5.60;3.15;;;;;;;;;;5032944;28;20384;-77
2022/12/21 02:07:42;;;;;;;3.55;2.85;;;;;;;;;;5031744;28;20029;-77
2022/12/21 02:10:08;;;;;;;6.30;2.80;;;;;;;;;;5031912;28;20025;-76
2022/12/21 02:12:35;;;;;;;3.80;2.80;;;;;;;;;;5012635;28;20365;-76
2022/12/21 02:15:01;;;;;;;6.40;2.70;;;;;;;;;;5032335;28;20029;-76
2022/12/21 02:17:36;;;;;;;4.78;3.00;;;;;;;;;;5014797;28;20029;-76
2022/12/21 02:20:04;;;;;;;4.68;2.95;;;;;;;;;;5029731;28;20025;-75
2022/12/21 02:22:30;;;;;;;8.18;3.97;;;;;;;;;;5010906;28;20037;-76
2022/12/21 02:25:04;;;;;;;4.38;2.90;;;;;;;;;;5014449;28;20035;-77
2022/12/21 02:27:56;;;;;;;3.35;2.40;;;;;;;;;;5030455;28;20057;-77
2022/12/21 02:30:23;;;;;;;4.45;2.55;;;;;;;;;;5027182;28;20033;-77
2022/12/21 02:33:23;;;;;;;3.75;2.80;;;;;;;;;;5031527;28;20500;-76
2022/12/21 02:36:12;;;;;;;3.80;3.00;;;;;;;;;;5013355;28;20037;-76
2022/12/21 02:39:13;;;;;;;4.03;2.33;;;;;;;;;;5030160;28;20036;-76
2022/12/21 02:41:56;;;;;;;4.65;2.80;;;;;;;;;;5029755;28;20489;-77
2022/12/21 02:44:30;;;;;;;3.22;2.55;;;;;;;;;;5034221;28;20305;-78
2022/12/21 02:47:21;;;;;;;5.05;2.58;;;;;;;;;;5030975;28;20049;-77
2022/12/21 02:49:59;;;;;;;3.45;2.60;;;;;;;;;;4999762;28;20033;-76
2022/12/21 02:52:36;;;;;;;4.80;2.50;;;;;;;;;;5010208;28;20028;-77
2022/12/21 02:55:02;;;;;;;3.90;2.50;;;;;;;;;;5031142;28;20036;-76
2022/12/21 02:57:38;;;;;;;5.20;2.80;;;;;;;;;;5031399;28;20029;-76
2022/12/21 03:00:12;;;;;;;4.07;2.83;;;;;;;;;;5028984;28;20025;-75
2022/12/21 03:06:27;;;;;;;3.58;2.40;;;;;;;;;;5030406;28;20451;-76
2022/12/21 03:09:02;;;;;;;4.53;2.47;;;;;;;;;;5031296;28;20084;-76
2022/12/21 03:11:54;;;;;;;3.28;2.30;;;;;;;;;;5031757;28;20036;-76
2022/12/21 03:14:35;;;;;;;3.90;2.50;;;;;;;;;;5033228;28;20025;-75
2022/12/21 03:17:28;;;;;;;3.58;2.50;;;;;;;;;;5029032;28;20030;-77
2022/12/21 03:20:06;;;;;;;5.50;2.70;;;;;;;;;;5030611;28;20504;-76
2022/12/21 03:22:50;;;;;;;2.63;2.42;;;;;;;;;;5030803;28;20045;-76
2022/12/21 03:25:24;;;;;;;3.97;2.40;;;;;;;;;;5025405;28;20108;-75
2022/12/21 03:27:56;;;;;;;6.13;2.58;;;;;;;;;;5031057;28;20487;-76
2022/12/21 03:30:27;;;;;;;3.72;2.10;;;;;;;;;;5032072;28;20492;-75
2022/12/21 03:32:59;;;;;;;3.50;2.30;;;;;;;;;;5031170;28;20033;-76
2022/12/21 03:36:02;;;;;;;5.90;2.42;;;;;;;;;;5035667;28;20068;-74
2022/12/21 03:38:41;;;;;;;2.97;1.95;;;;;;;;;;4987778;28;20045;-77
2022/12/21 03:41:13;;;;;;;2.55;2.03;;;;;;;;;;5037786;28;20024;-76
2022/12/21 03:43:42;;;;;;;2.65;1.95;;;;;;;;;;5042480;28;20044;-75
2022/12/21 03:46:15;;;;;;;2.60;1.90;;;;;;;;;;5041466;28;20032;-75
2022/12/21 03:48:51;;;;;;;3.35;1.90;;;;;;;;;;5030182;28;20037;-76
2022/12/21 03:51:28;;;;;;;2.67;1.90;;;;;;;;;;5012287;28;20120;-76
2022/12/21 03:53:59;;;;;;;3.63;2.35;;;;;;;;;;5030154;28;20037;-75
2022/12/21 03:56:32;;;;;;;2.92;2.10;;;;;;;;;;5029071;28;20021;-76
2022/12/21 03:59:00;;;;;;;3.67;2.05;;;;;;;;;;5012325;28;20487;-76
2022/12/21 04:02:01;;;;;;;2.40;2.20;;;;;;;;;;5030018;28;20025;-76
2022/12/21 04:04:36;;;;;;;4.53;2.60;;;;;;;;;;5023837;28;20129;-76
2022/12/21 04:07:04;;;;;;;3.67;2.60;;;;;;;;;;5029404;28;20026;-76
2022/12/21 04:09:29;;;;;;;6.75;2.58;;;;;;;;;;5031295;28;20044;-76
2022/12/21 04:14:39;;;;;;;3.72;2.20;;;;;;;;;;5028543;28;20083;-76
2022/12/21 04:17:07;;;;;;;2.80;2.10;;;;;;;;;;5029611;28;20087;-76
2022/12/21 04:30:34;;;;;;;3.10;2.15;;;;;;;;;;5028784;28;20153;-77
2022/12/21 04:32:59;;;;;;;3.72;2.25;;;;;;;;;;5026979;28;20148;-76
2022/12/21 04:35:25;;;;;;;2.90;2.60;;;;;;;;;;5013145;28;20104;-77
2022/12/21 04:37:50;;;;;;;2.80;2.25;;;;;;;;;;5029226;28;20025;-77
2022/12/21 04:40:15;;;;;;;2.78;2.20;;;;;;;;;;5012691;28;20033;-76
2022/12/21 04:42:43;;;;;;;4.65;2.50;;;;;;;;;;5028162;28;20030;-76
2022/12/21 04:45:09;;;;;;;3.53;2.17;;;;;;;;;;5015131;28;20025;-76
2022/12/21 04:47:34;;;;;;;8.32;4.25;;;;;;;;;;5034374;28;20037;-76
2022/12/21 04:50:00;;;;;;;3.13;1.80;;;;;;;;;;5033961;28;20033;-77
2022/12/21 04:52:27;;;;;;;2.00;1.90;;;;;;;;;;5015053;28;20029;-77
2022/12/21 04:54:56;;;;;;;2.65;2.17;;;;;;;;;;5031921;28;20075;-77
2022/12/21 04:57:21;;;;;;;2.70;2.33;;;;;;;;;;5033754;28;20052;-76
2022/12/21 04:59:47;;;;;;;2.20;2.00;;;;;;;;;;5033612;28;20476;-76
2022/12/21 05:02:15;;;;;;;1.95;1.80;;;;;;;;;;5033028;28;20483;-76
2022/12/21 05:04:43;;;;;;;3.05;2.10;;;;;;;;;;5033845;28;20094;-76
2022/12/21 05:07:10;;;;;;;3.47;1.90;;;;;;;;;;5033466;28;20191;-76
2022/12/21 05:09:36;;;;;;;4.93;2.28;;;;;;;;;;5029682;28;20052;-76
2022/12/21 05:12:03;;;;;;;4.00;2.42;;;;;;;;;;5016352;28;20029;-76
2022/12/21 05:14:29;;;;;;;2.75;2.35;;;;;;;;;;5033973;28;20036;-76
2022/12/21 05:16:54;;;;;;;3.13;2.30;;;;;;;;;;5033880;28;20021;-77
2022/12/21 05:19:24;;;;;;;2.10;1.77;;;;;;;;;;5034035;28;20071;-77
2022/12/21 05:21:51;;;;;;;5.15;2.20;;;;;;;;;;5033383;28;20037;-76
2022/12/21 05:24:17;;;;;;;2.97;2.38;;;;;;;;;;5033804;28;20028;-77
2022/12/21 05:26:42;;;;;;;4.07;2.10;;;;;;;;;;5032821;28;20026;-77
2022/12/21 05:29:12;;;;;;;2.50;1.90;;;;;;;;;;5030163;28;20487;-76
2022/12/21 05:31:38;;;;;;;3.83;2.30;;;;;;;;;;5033460;28;20034;-77
2022/12/21 05:34:03;;;;;;;2.33;2.13;;;;;;;;;;5015674;28;20119;-76
2022/12/21 05:36:29;;;;;;;3.67;2.47;;;;;;;;;;5015888;28;20033;-76
2022/12/21 05:38:56;;;;;;;10.18;3.70;;;;;;;;;;5033756;28;20391;-76
2022/12/21 05:41:26;;;;;;;6.72;3.08;;;;;;;;;;5032987;28;20048;-77
2022/12/21 05:43:54;;;;;;;3.63;2.17;;;;;;;;;;5016837;28;20112;-77
2022/12/21 05:46:22;;;;;;;4.22;2.38;;;;;;;;;;5016357;28;20241;-77
2022/12/21 05:48:47;;;;;;;3.97;2.22;;;;;;;;;;5035161;28;20037;-75
2022/12/21 05:51:14;;;;;;;7.80;2.40;;;;;;;;;;5016386;28;20033;-75
2022/12/21 05:53:41;;;;;;;2.85;2.45;;;;;;;;;;5034243;28;20068;-76
2022/12/21 05:56:09;;;;;;;4.53;2.53;;;;;;;;;;5032121;28;20037;-75
2022/12/21 05:58:37;;;;;;;3.72;2.80;;;;;;;;;;5034000;28;20037;-74
2022/12/21 06:01:05;;;;;;;3.53;2.33;;;;;;;;;;5033254;28;20021;-77
2022/12/21 06:03:31;;;;;;;2.13;1.92;;;;;;;;;;5032967;28;20025;-76
2022/12/21 06:06:08;;;;;;;2.47;2.20;;;;;;;;;;5034758;28;20159;-77
2022/12/21 06:08:34;;;;;;;7.07;2.22;;;;;;;;;;5034032;28;20036;-78
2022/12/21 06:11:04;;;;;;;2.78;2.38;;;;;;;;;;5037682;28;20407;-76
2022/12/21 06:13:30;;;;;;;6.15;2.30;;;;;;;;;;5025769;28;20037;-77
2022/12/21 06:16:01;;;;;;;3.70;2.40;;;;;;;;;;5041972;28;20021;-77
2022/12/21 06:18:26;;;;;;;2.53;2.00;;;;;;;;;;5042791;28;20029;-77
2022/12/21 06:20:52;;;;;;;2.80;2.40;;;;;;;;;;5025656;28;20395;-76
2022/12/21 06:23:18;;;;;;;3.60;2.33;;;;;;;;;;5025748;28;20109;-76
2022/12/21 06:25:46;;;;;;;3.97;2.20;;;;;;;;;;5040091;28;20025;-78
2022/12/21 06:28:11;;;;;;;4.72;2.35;;;;;;;;;;5030266;28;20488;-77
2022/12/21 06:30:37;;;;;;;3.35;2.30;;;;;;;;;;5036460;28;20132;-77
2022/12/21 06:33:02;;;;;;;3.50;2.38;;;;;;;;;;5031387;28;20078;-77
2022/12/21 06:35:28;;;;;;;6.93;3.38;;;;;;;;;;5031358;28;20082;-77
2022/12/21 06:37:53;;;;;;;4.47;3.10;;;;;;;;;;5011399;28;20091;-78
2022/12/21 06:40:19;;;;;;;5.03;2.70;;;;;;;;;;5027414;28;20081;-78
2022/12/21 06:42:44;;;;;;;5.20;3.10;;;;;;;;;;5030504;28;20051;-78
2022/12/21 06:45:09;;;;;;;6.20;3.83;;;;;;;;;;5014903;28;20029;-78
2022/12/21 06:47:35;;;;;;;5.00;3.42;;;;;;;;;;5032757;28;20040;-78
2022/12/21 06:50:00;;;;;;;5.68;3.25;;;;;;;;;;5031315;28;20022;-77
2022/12/21 06:52:33;;;;;;;4.78;2.60;;;;;;;;;;5031108;28;20041;-78
2022/12/21 06:54:58;;;;;;;6.80;3.80;;;;;;;;;;5030200;28;20472;-77
2022/12/21 06:57:26;;;;;;;6.47;4.03;;;;;;;;;;5032488;28;20112;-78
2022/12/21 06:59:51;;;;;;;4.53;2.90;;;;;;;;;;5013258;28;20022;-77
2022/12/21 07:02:17;;;;;;;5.38;3.33;;;;;;;;;;5013335;28;20028;-78
2022/12/21 07:04:42;;;;;;;5.30;3.95;;;;;;;;;;5018420;28;20112;-79
2022/12/21 07:07:07;;;;;;;7.13;4.03;;;;;;;;;;5016395;28;20026;-78
2022/12/21 07:09:33;;;;;;;7.97;3.83;;;;;;;;;;5033801;28;20439;-78
2022/12/21 07:11:58;;;;;;;5.28;3.38;;;;;;;;;;5012136;28;20099;-79
2022/12/21 07:14:24;;;;;;;3.92;2.88;;;;;;;;;;5015407;28;20030;-78
2022/12/21 07:16:49;;;;;;;4.13;3.35;;;;;;;;;;5027333;28;20044;-78
2022/12/21 07:19:15;;;;;;;4.63;3.25;;;;;;;;;;5031936;28;20028;-78
2022/12/21 07:21:40;;;;;;;4.35;3.35;;;;;;;;;;5031620;28;20029;-78
2022/12/21 07:24:06;;;;;;;5.20;3.55;;;;;;;;;;5013523;28;20480;-78
2022/12/21 07:26:32;;;;;;;5.20;2.80;;;;;;;;;;5013809;28;20021;-78
2022/12/21 07:28:58;;;;;;;8.43;4.00;;;;;;;;;;5031537;28;20026;-78
2022/12/21 07:31:25;;;;;;;5.47;3.60;;;;;;;;;;5013596;28;20484;-78
2022/12/21 07:33:51;;;;;;;7.32;3.70;;;;;;;;;;5029945;28;20017;-78
2022/12/21 07:36:17;;;;;;;5.55;3.30;;;;;;;;;;5031829;28;20080;-77
2022/12/21 07:38:42;;;;;;;6.30;3.72;;;;;;;;;;5032837;28;20033;-78
2022/12/21 07:41:15;;;;;;;6.43;3.50;;;;;;;;;;5013396;28;20025;-78
2022/12/21 07:43:43;;;;;;;5.90;3.90;;;;;;;;;;5014035;28;20025;-78
2022/12/21 07:46:09;;;;;;;6.38;3.22;;;;;;;;;;5028705;28;20022;-78
2022/12/21 07:48:39;;;;;;;5.45;3.28;;;;;;;;;;5030262;28;20029;-78
2022/12/21 07:51:05;;;;;;;6.47;3.72;;;;;;;;;;5030764;28;20025;-78
2022/12/21 07:53:31;;;;;;;4.70;3.40;;;;;;;;;;5031130;28;20036;-78
2022/12/21 07:56:01;;;;;;;7.68;3.72;;;;;;;;;;5031207;28;20025;-78
2022/12/21 07:58:26;;;;;;;5.30;3.50;;;;;;;;;;5013202;28;20038;-78
2022/12/21 08:00:54;;;;;;;3.83;2.97;;;;;;;;;;5011901;28;20404;-78
2022/12/21 08:03:20;;;;;;;5.20;3.70;;;;;;;;;;5013756;28;20454;-78
2022/12/21 08:05:45;;;;;;;5.22;3.20;;;;;;;;;;5018418;28;20029;-79
2022/12/21 08:08:11;;;;;;;3.97;3.30;;;;;;;;;;5030604;28;20495;-78
2022/12/21 08:10:38;;;;;;;3.50;3.03;;;;;;;;;;5030313;28;20021;-78
2022/12/21 08:13:06;;;;;;;6.50;3.33;;;;;;;;;;5029570;28;20496;-78
2022/12/21 08:15:32;;;;;;;4.13;3.63;;;;;;;;;;5029139;28;20036;-78
2022/12/21 08:17:57;;;;;;;5.20;3.35;;;;;;;;;;5027278;28;20041;-77
2022/12/21 08:20:27;;;;;;;5.65;3.70;;;;;;;;;;5034216;28;20027;-77
2022/12/21 08:22:56;;;;;;;6.45;3.97;;;;;;;;;;5037289;28;20603;-78
2022/12/21 08:25:21;;;;;;;3.92;3.20;;;;;;;;;;5036234;28;20040;-78
2022/12/21 08:27:47;;;;;;;4.97;3.40;;;;;;;;;;5028564;28;20025;-78
2022/12/21 08:30:15;;;;;;;5.55;3.10;;;;;;;;;;5026857;28;20029;-78
2022/12/21 08:32:41;;;;;;;4.80;3.42;;;;;;;;;;5029374;28;20356;-78
2022/12/21 08:35:08;;;;;;;5.47;3.58;;;;;;;;;;5032892;28;20411;-77
2022/12/21 08:37:35;;;;;;;5.25;3.25;;;;;;;;;;5032029;28;20060;-78
2022/12/21 08:40:01;;;;;;;3.40;3.10;;;;;;;;;;5035340;28;20044;-78
2022/12/21 08:42:27;;;;;;;3.58;2.90;;;;;;;;;;5011868;28;20017;-78
2022/12/21 08:44:53;;;;;;;4.55;3.30;;;;;;;;;;5019328;28;20024;-78
2022/12/21 08:47:18;;;;;;;4.10;3.50;;;;;;;;;;5033963;28;20044;-78
2022/12/21 08:49:46;;;;;;;4.10;3.22;;;;;;;;;;5036372;28;20533;-78
2022/12/21 08:52:16;;;;;;;6.80;4.22;;;;;;;;;;5015119;28;20033;-78
2022/12/21 08:54:42;;;;;;;5.00;3.40;;;;;;;;;;5036151;28;20048;-79
2022/12/21 08:57:07;;;;;;;7.25;4.03;;;;;;;;;;5016518;28;20440;-78
2022/12/21 08:59:35;;;;;;;4.75;3.47;;;;;;;;;;5015536;28;20116;-78
2022/12/21 09:02:00;;;;;;;5.15;3.90;;;;;;;;;;5033509;28;20032;-78
2022/12/21 09:04:26;;;;;;;5.20;3.97;;;;;;;;;;5036032;28;20029;-78
2022/12/21 09:06:52;;;;;;;5.47;3.90;;;;;;;;;;5034765;28;20359;-78
2022/12/21 09:12:39;;;;;;;4.75;3.70;;;;;;;;;;5029351;28;20057;-78
2022/12/21 09:15:08;;;;;;;8.00;4.47;;;;;;;;;;5032996;28;20116;-78
2022/12/21 09:17:33;;;;;;;7.43;4.65;;;;;;;;;;5009425;28;20488;-78
2022/12/21 09:19:58;;;;;;;7.38;4.28;;;;;;;;;;5031995;28;20025;-79
2022/12/21 09:22:25;;;;;;;7.47;5.10;;;;;;;;;;5010883;28;20041;-78
2022/12/21 09:24:54;;;;;;;9.68;5.53;;;;;;;;;;5030211;28;20056;-78
2022/12/21 09:27:19;;;;;;;7.60;4.83;;;;;;;;;;5029933;28;20051;-78
2022/12/21 09:29:47;;;;;;;8.25;4.55;;;;;;;;;;5028955;28;20053;-78
2022/12/21 09:32:20;;;;;;;7.22;4.70;;;;;;;;;;5033615;28;20033;-77
2022/12/21 09:34:45;;;;;;;7.85;5.05;;;;;;;;;;5036642;28;20036;-78
2022/12/21 09:37:13;;;;;;;8.18;4.82;;;;;;;;;;5039244;28;20025;-79
2022/12/21 09:39:40;;;;;;;7.65;5.10;;;;;;;;;;5023152;28;20029;-77
2022/12/21 09:42:42;;;;;;;11.60;5.90;;;;;;;;;;5039921;28;20033;-79
2022/12/21 09:45:37;;;;;;;10.38;5.95;;;;;;;;;;5028257;28;20029;-79
2022/12/21 09:48:05;;;;;;;9.82;5.30;;;;;;;;;;5029845;28;20037;-78
2022/12/21 09:50:39;;;;;;;6.70;4.72;;;;;;;;;;5013488;28;20040;-79
2022/12/21 09:53:15;;;;;;;6.43;4.82;;;;;;;;;;5032149;28;20029;-78
2022/12/21 09:55:51;;;;;;;8.57;4.75;;;;;;;;;;5015685;28;20033;-78
2022/12/21 09:58:50;;;;;;;8.50;5.10;;;;;;;;;;5031560;28;20059;-78
2022/12/21 10:01:27;;;;;;;8.00;4.77;;;;;;;;;;5018862;28;20053;-78
2022/12/21 10:04:31;;;;;;;9.23;4.88;;;;;;;;;;5032324;28;20029;-79
2022/12/21 10:07:15;;;;;;;5.80;4.18;;;;;;;;;;5030890;28;20029;-78
2022/12/21 10:10:04;;;;;;;6.10;4.15;;;;;;;;;;5032550;28;20108;-76
2022/12/21 10:12:55;;;;;;;7.30;5.00;;;;;;;;;;5029029;28;20029;-78
2022/12/21 10:15:29;;;;;;;9.38;5.78;;;;;;;;;;5033039;28;20037;-79
2022/12/21 10:18:26;;;;;;;10.65;6.30;;;;;;;;;;5031028;28;20083;-77
2022/12/21 10:21:29;;;;;;;6.47;4.88;;;;;;;;;;5031371;28;20502;-78
2022/12/21 10:23:56;;;;;;;7.25;4.80;;;;;;;;;;5028784;28;20400;-78
2022/12/21 10:26:28;;;;;;;7.20;4.13;;;;;;;;;;5031884;28;20476;-77
2022/12/21 10:29:00;;;;;;;4.90;3.80;;;;;;;;;;5030527;28;20436;-77
2022/12/21 10:31:40;;;;;;;7.72;4.28;;;;;;;;;;5012497;28;20053;-79
2022/12/21 10:34:36;;;;;;;6.68;4.40;;;;;;;;;;5009294;28;20505;-77
2022/12/21 10:37:12;;;;;;;6.90;5.28;;;;;;;;;;5030808;28;20036;-78
2022/12/21 10:39:37;;;;;;;7.20;4.40;;;;;;;;;;5012746;28;20143;-78
2022/12/21 10:42:24;;;;;;;6.25;4.03;;;;;;;;;;5025851;28;20026;-77
2022/12/21 10:44:51;;;;;;;6.05;4.55;;;;;;;;;;5031677;28;20049;-78
2022/12/21 10:47:23;;;;;;;5.82;4.07;;;;;;;;;;5012544;28;20032;-80
2022/12/21 10:50:03;;;;;;;5.32;3.80;;;;;;;;;;5030509;28;20495;-79
2022/12/21 10:52:37;;;;;;;6.20;4.47;;;;;;;;;;5012921;28;20029;-77
2022/12/21 10:55:24;;;;;;;7.38;4.97;;;;;;;;;;5029724;28;20033;-79
2022/12/21 10:57:54;;;;;;;7.97;4.53;;;;;;;;;;5030003;28;20072;-78
2022/12/21 11:00:23;;;;;;;6.38;4.07;;;;;;;;;;5008950;28;20370;-79
2022/12/21 11:02:50;;;;;;;4.55;3.88;;;;;;;;;;5029122;28;20083;-80
2022/12/21 11:05:33;;;;;;;5.28;4.00;;;;;;;;;;5023581;28;20397;-79
2022/12/21 11:08:16;;;;;;;6.63;4.38;;;;;;;;;;5026118;28;20285;-79
2022/12/21 11:10:52;;;;;;;5.40;4.20;;;;;;;;;;5029824;28;20029;-79
2022/12/21 11:13:21;;;;;;;5.07;4.45;;;;;;;;;;5027545;28;20026;-79
2022/12/21 11:15:54;;;;;;;5.72;4.10;;;;;;;;;;5034421;28;20112;-80
2022/12/21 11:18:46;;;;;;;5.03;3.83;;;;;;;;;;5033870;28;20058;-79
2022/12/21 11:21:41;;;;;;;4.53;3.83;;;;;;;;;;5026596;28;20021;-78
2022/12/21 11:24:17;;;;;;;5.25;3.50;;;;;;;;;;5029424;28;20021;-79
2022/12/21 11:26:46;;;;;;;6.28;4.47;;;;;;;;;;5047517;28;20091;-78
2022/12/21 11:29:24;;;;;;;4.50;3.55;;;;;;;;;;5032871;28;20013;-79
2022/12/21 11:31:53;;;;;;;4.90;3.40;;;;;;;;;;5031069;28;20061;-79
2022/12/21 11:34:33;;;;;;;4.20;3.30;;;;;;;;;;5011257;28;20263;-79
2022/12/21 11:37:01;;;;;;;5.38;3.72;;;;;;;;;;5024878;28;20024;-79
2022/12/21 11:39:27;;;;;;;9.77;3.67;;;;;;;;;;5029124;28;20126;-79
2022/12/21 11:41:54;;;;;;;3.72;3.42;;;;;;;;;;5033153;28;20337;-79
2022/12/21 11:44:29;;;;;;;3.83;3.15;;;;;;;;;;5032132;28;20475;-79
2022/12/21 11:47:15;;;;;;;6.00;3.25;;;;;;;;;;5026741;28;20032;-79
2022/12/21 11:50:03;;;;;;;3.85;3.13;;;;;;;;;;5030707;28;20424;-78
2022/12/21 11:52:52;;;;;;;3.10;2.80;;;;;;;;;;5009561;28;20052;-78
2022/12/21 11:55:44;;;;;;;3.90;3.10;;;;;;;;;;5005070;28;20041;-79
2022/12/21 11:58:18;;;;;;;3.72;3.08;;;;;;;;;;4978524;28;20029;-78
2022/12/21 12:00:59;;;;;;;3.47;3.03;;;;;;;;;;5030647;28;20024;-78
2022/12/21 12:03:36;;;;;;;4.35;3.35;;;;;;;;;;5014172;28;20024;-78
2022/12/21 12:06:37;;;;;;;3.95;3.22;;;;;;;;;;5033450;28;20022;-77
2022/12/21 12:09:25;;;;;;;3.53;2.78;;;;;;;;;;5034503;28;20022;-79
2022/12/21 12:12:11;;;;;;;;;;;;;;;;;;5035496;28;20041;-78
2022/12/21 12:14:36;;;;;;;3.30;2.70;;;;;;;;;;5034126;28;19972;-79
2022/12/21 12:17:10;;;;;;;3.60;2.92;;;;;;;;;;5035683;28;20369;-79
2022/12/21 12:19:52;;;;;;;2.30;2.03;;;;;;;;;;5030865;28;20026;-80
2022/12/21 12:22:20;;;;;;;3.53;2.50;;;;;;;;;;5025703;28;20028;-76
2022/12/21 12:25:13;;;;;;;3.03;2.38;;;;;;;;;;5032708;28;20017;-77
2022/12/21 12:27:56;;;;;;;5.53;2.22;;;;;;;;;;5022822;28;20025;-78
2022/12/21 12:30:30;;;;;;;4.28;2.25;;;;;;;;;;5013723;28;20075;-76
2022/12/21 12:33:21;;;;;;;2.38;2.17;;;;;;;;;;5029693;28;20043;-77
2022/12/21 12:36:15;;;;;;;2.58;2.30;;;;;;;;;;5028564;28;20030;-78
2022/12/21 12:38:58;;;;;;;3.28;2.50;;;;;;;;;;5030183;28;20082;-81
2022/12/21 12:42:02;;;;;;;2.38;2.17;;;;;;;;;;5028061;28;20522;-78
2022/12/21 12:44:49;;;;;;;2.30;2.10;;;;;;;;;;5020767;28;20040;-77
2022/12/21 12:47:41;;;;;;;2.33;2.03;;;;;;;;;;5028938;28;20033;-76
2022/12/21 12:50:48;;;;;;;2.80;2.10;;;;;;;;;;5032013;28;20060;-77
2022/12/21 12:53:35;;;;;;;2.38;2.13;;;;;;;;;;5007710;28;20033;-77
2022/12/21 12:56:09;;;;;;;3.67;2.35;;;;;;;;;;5030222;28;20040;-77
2022/12/21 12:58:50;;;;;;;3.28;2.13;;;;;;;;;;5031631;28;20034;-77
2022/12/21 13:01:22;;;;;;;3.97;2.00;;;;;;;;;;5031232;28;20026;-77
2022/12/21 13:03:48;;;;;;;3.15;2.10;;;;;;;;;;5031086;28;20494;-78
2022/12/21 13:06:41;;;;;;;2.40;2.00;;;;;;;;;;5017498;28;20547;-79
2022/12/21 13:09:16;;;;;;;2.08;1.88;;;;;;;;;;5033785;28;20147;-78
2022/12/21 13:12:16;;;;;;;2.30;2.10;;;;;;;;;;5034855;28;20044;-78
2022/12/21 13:14:51;;;;;;;2.65;1.90;;;;;;;;;;5022315;28;20037;-79
2022/12/21 13:17:37;;;;;;;2.40;1.80;;;;;;;;;;5028990;28;20056;-78
2022/12/21 13:20:04;;;;;;;2.60;2.17;;;;;;;;;;5035562;28;20501;-79
2022/12/21 13:22:36;;;;;;;2.58;2.00;;;;;;;;;;5031992;28;20033;-78
2022/12/21 13:25:14;;;;;;;5.47;2.20;;;;;;;;;;5032855;28;20017;-79
2022/12/21 13:27:42;;;;;;;2.38;1.83;;;;;;;;;;5021248;28;20513;-80
2022/12/21 13:30:11;;;;;;;4.20;2.78;;;;;;;;;;5032411;28;20476;-79
2022/12/21 13:32:40;;;;;;;3.25;2.20;;;;;;;;;;5016120;28;20041;-77
2022/12/21 13:35:14;;;;;;;4.20;2.50;;;;;;;;;;5032073;28;20104;-78
2022/12/21 13:37:44;;;;;;;7.28;3.00;;;;;;;;;;5033333;28;20029;-78
2022/12/21 13:40:36;;;;;;;22.60;8.27;;;;;;;;;;5032102;28;20017;-79
2022/12/21 13:43:13;;;;;;;10.38;4.60;;;;;;;;;;5033404;28;20021;-78
2022/12/21 13:45:44;;;;;;;8.18;4.32;;;;;;;;;;5016086;28;20063;-78
2022/12/21 13:48:16;;;;;;;8.20;4.60;;;;;;;;;;5041003;28;20029;-78
2022/12/21 13:51:04;;;;;;;6.45;3.40;;;;;;;;;;5031716;28;20109;-78
2022/12/21 13:53:51;;;;;;;5.93;3.38;;;;;;;;;;4997063;28;20091;-78
2022/12/21 13:56:44;;;;;;;2.65;2.25;;;;;;;;;;5082251;22;20071;-58
2022/12/21 13:59:19;;;;;;;2.80;2.05;;;;;;;;;;5072161;28;20107;-57
2022/12/21 14:01:59;;;;;;;4.47;2.85;;;;;;;;;;5070914;28;20394;-57
2022/12/21 14:04:43;;;;;;;5.53;2.65;;;;;;;;;;5061742;28;20052;-56
2022/12/21 14:07:33;;;;;;;4.80;2.40;;;;;;;;;;5052217;28;20397;-56
2022/12/21 14:10:17;;;;;;;4.60;2.60;;;;;;;;;;5052479;28;20078;-55
2022/12/21 14:13:10;;;;;;;2.80;1.60;;;;;;;;;;5050838;28;20035;-55
2022/12/21 14:15:48;;;;;;;2.95;2.03;;;;;;;;;;5050244;28;20032;-59
2022/12/21 14:18:16;;;;;;;3.30;2.03;;;;;;;;;;5054098;28;20017;-55
2022/12/21 14:20:42;;;;;;;2.90;2.15;;;;;;;;;;5056230;28;20036;-56
2022/12/21 14:23:24;;;;;;;8.10;3.90;;;;;;;;;;5051901;28;20387;-56
2022/12/21 14:25:50;;;;;;;5.15;2.78;;;;;;;;;;5054600;28;20033;-56
2022/12/21 14:28:15;;;;;;;6.07;2.97;;;;;;;;;;5058245;28;20027;-55
2022/12/21 14:31:09;;;;;;;5.03;2.47;;;;;;;;;;5057278;28;20024;-55
2022/12/21 14:33:38;;;;;;;11.32;6.22;;;;;;;;;;5050721;28;20040;-57
2022/12/21 14:36:11;;;;;;;10.27;5.93;;;;;;;;;;5054136;28;20039;-57
2022/12/21 14:38:36;;;;;;;9.75;5.18;;;;;;;;;;5058223;28;20020;-57
2022/12/21 14:41:07;;;;;;;7.13;3.88;;;;;;;;;;5056881;28;20024;-57
2022/12/21 14:44:21;;;;;;;5.55;3.90;;;;;;;;;;5055156;28;20502;-56
2022/12/21 14:47:07;;;;;;;6.32;3.30;;;;;;;;;;5055714;28;20030;-56
2022/12/21 14:49:38;;;;;;;4.68;3.08;;;;;;;;;;5056085;28;20044;-56
2022/12/21 14:52:15;;;;;;;6.75;4.07;;;;;;;;;;5059908;28;20028;-57
2022/12/21 14:54:44;;;;;;;7.15;4.32;;;;;;;;;;5048842;28;20025;-56
2022/12/21 14:57:10;;;;;;;7.35;4.03;;;;;;;;;;5049491;28;20028;-56
2022/12/21 14:59:42;;;;;;;5.00;3.78;;;;;;;;;;5051332;28;20527;-56
2022/12/21 15:02:44;;;;;;;6.88;3.97;;;;;;;;;;5049484;28;20028;-57
2022/12/21 15:05:35;;;;;;;5.82;3.65;;;;;;;;;;5047476;28;20025;-58
2022/12/21 15:08:13;;;;;;;3.97;2.83;;;;;;;;;;5048845;28;20036;-57
2022/12/21 15:10:44;;;;;;;7.63;4.07;;;;;;;;;;5064058;28;20025;-58
2022/12/21 15:13:25;;;;;;;7.75;4.75;;;;;;;;;;5052827;28;20033;-58
2022/12/21 15:16:12;;;;;;;11.77;8.23;;;;;;;;;;5048010;28;20025;-57
2022/12/21 15:18:39;;;;;;;4.43;3.10;;;;;;;;;;5051132;28;20063;-57
2022/12/21 15:21:26;;;;;;;4.57;3.50;;;;;;;;;;5053713;28;20009;-57
2022/12/21 15:23:52;;;;;;;15.43;9.88;;;;;;;;;;5051369;28;20533;-57
2022/12/21 15:26:24;;;;;;;22.40;14.20;;;;;;;;;;5060682;28;20041;-57
2022/12/21 15:28:51;;;;;;;39.45;24.67;;;;;;;;;;5054923;28;20044;-57
2022/12/21 15:31:45;;;;;;;17.42;11.30;;;;;;;;;;5053411;28;20073;-57
2022/12/21 15:34:18;;;;;;;9.82;6.60;;;;;;;;;;5049411;28;20029;-58
2022/12/21 15:36:50;;;;;;;10.98;8.23;;;;;;;;;;5056600;28;20091;-57
2022/12/21 15:39:22;;;;;;;6.88;5.18;;;;;;;;;;5042862;28;20025;-56